Sallum Plateau, Egypt
Current Conditions -  °F | °C
As of 10:00 PM on Sunday 25 Jan 2015 (Local Time) from HEMM Reporting Station
Clear Clear  
Wind Chill: 50°   Ceiling: Unl
Heat Index: 50°   Visibility: 6mi
Dew Point: 43°   Wind: 6mph
Humidity: 76%   Direction: 220°SW
Pressure: 30.09"   Gusts: NA
Location:  31.57°N, 25.13°E
Report Text: HEMM 252000Z 22005KT CAVOK 10/06 Q1019 NOSIG
Loading
Personal Weather Stations






























Interactive Weather Map New forecast layout! Learn more

10-Day Weather Forecast

Advertisements
Track Severe Weather on mobile